Time;durP1;ratioP1;P1;durP2;ratioP2;P2;SDS_P1;SDS_P2;PMS_P1;PMS_P2;Temp;Humidity;BMP_temperature;BMP_pressure;BME280_temperature;BME280_humidity;BME280_pressure;Samples;Min_cycle;Max_cycle;Signal;HPM_P1;HPM_P2
2022/10/12 00:03:17;;;;;;;3.73;2.43;;;7.80;87.70;;;;;;958143;145;27558;-78
2022/10/12 00:05:44;;;;;;;3.07;2.20;;;7.80;88.50;;;;;;960398;145;27361;-78
2022/10/12 00:08:11;;;;;;;4.37;2.60;;;7.80;88.00;;;;;;960461;145;27344;-78
2022/10/12 00:10:43;;;;;;;3.20;2.20;;;7.80;88.30;;;;;;960808;145;27431;-78
2022/10/12 00:13:10;;;;;;;3.70;2.40;;;7.80;88.40;;;;;;960465;145;27433;-78
2022/10/12 00:15:39;;;;;;;4.50;2.30;;;7.80;88.50;;;;;;960492;145;27403;-77
2022/10/12 00:18:06;;;;;;;6.20;3.00;;;7.80;88.80;;;;;;958323;145;27419;-78
2022/10/12 00:20:32;;;;;;;4.73;2.93;;;7.80;88.90;;;;;;959272;145;27388;-78
2022/10/12 00:22:59;;;;;;;4.70;2.57;;;7.80;89.10;;;;;;958387;145;27453;-78
2022/10/12 00:25:25;;;;;;;4.13;2.20;;;7.80;89.20;;;;;;957831;145;27269;-78
2022/10/12 00:27:52;;;;;;;2.90;2.40;;;7.80;89.30;;;;;;959128;145;27454;-77
2022/10/12 00:30:19;;;;;;;3.10;2.30;;;7.70;89.40;;;;;;918871;151;27417;-78
2022/10/12 00:32:45;;;;;;;3.07;2.40;;;7.70;89.20;;;;;;951897;146;27363;-77
2022/10/12 00:35:12;;;;;;;4.40;2.63;;;7.70;89.30;;;;;;952705;146;27244;-78
2022/10/12 00:37:38;;;;;;;3.87;2.60;;;7.70;89.60;;;;;;952872;146;27425;-78
2022/10/12 00:40:05;;;;;;;5.40;2.57;;;7.70;89.60;;;;;;952880;146;27298;-78
2022/10/12 00:42:32;;;;;;;2.97;2.33;;;7.60;89.70;;;;;;951893;146;27368;-78
2022/10/12 00:44:58;;;;;;;4.43;2.53;;;7.60;89.80;;;;;;945985;146;27401;-78
2022/10/12 00:47:33;;;;;;;4.90;2.50;;;7.60;90.00;;;;;;942263;149;27321;-78
2022/10/12 00:50:06;;;;;;;2.10;1.90;;;7.50;90.10;;;;;;944695;149;27815;-78
2022/10/12 00:52:41;;;;;;;3.50;2.53;;;7.50;90.10;;;;;;943335;149;27318;-78
2022/10/12 00:55:08;;;;;;;4.93;2.30;;;7.50;90.10;;;;;;942018;149;27454;-78
2022/10/12 00:57:35;;;;;;;4.07;2.60;;;7.50;90.10;;;;;;943439;149;27349;-78
2022/10/12 01:00:01;;;;;;;3.73;2.30;;;7.40;90.20;;;;;;944361;149;27414;-77
2022/10/12 01:02:28;;;;;;;3.97;2.33;;;7.40;90.50;;;;;;940883;149;27345;-78
2022/10/12 01:04:54;;;;;;;7.33;2.10;;;7.40;90.40;;;;;;922711;153;28093;-78
2022/10/12 01:07:21;;;;;;;2.47;2.27;;;7.40;90.50;;;;;;934284;152;27373;-78
2022/10/12 01:09:48;;;;;;;3.33;2.03;;;7.30;90.60;;;;;;934519;152;27457;-77
2022/10/12 01:12:14;;;;;;;3.27;2.27;;;7.40;90.60;;;;;;934557;152;27354;-77
2022/10/12 01:14:41;;;;;;;8.07;3.00;;;7.30;90.70;;;;;;933881;152;27663;-77
2022/10/12 01:17:13;;;;;;;3.13;2.27;;;7.30;90.80;;;;;;936280;152;27773;-76
2022/10/12 01:19:42;;;;;;;4.70;2.20;;;7.30;90.90;;;;;;935316;152;27470;-77
2022/10/12 01:22:09;;;;;;;3.57;2.43;;;7.30;90.90;;;;;;935374;152;27267;-77
2022/10/12 01:25:03;;;;;;;4.67;2.57;;;7.30;91.00;;;;;;934415;152;27367;-77
2022/10/12 01:27:39;;;;;;;2.97;2.23;;;7.20;91.10;;;;;;934474;152;27474;-78
2022/10/12 01:30:08;;;;;;;4.63;2.87;;;7.20;91.10;;;;;;931125;152;27367;-78
2022/10/12 01:32:37;;;;;;;3.83;2.50;;;7.20;91.20;;;;;;933199;152;27384;-78
2022/10/12 01:35:07;;;;;;;3.53;2.70;;;7.20;91.40;;;;;;934447;152;27283;-78
2022/10/12 01:37:55;;;;;;;4.63;2.47;;;7.20;91.50;;;;;;932723;152;27349;-78
2022/10/12 01:40:30;;;;;;;3.50;2.40;;;7.20;91.70;;;;;;933616;152;27439;-78
2022/10/12 01:42:57;;;;;;;2.80;2.60;;;7.20;91.70;;;;;;933566;152;27344;-77
2022/10/12 01:45:23;;;;;;;3.97;2.40;;;7.20;91.80;;;;;;933757;152;27443;-78
2022/10/12 01:47:51;;;;;;;2.60;2.40;;;7.20;91.90;;;;;;936240;152;27956;-78
2022/10/12 01:50:17;;;;;;;3.30;2.87;;;7.20;92.00;;;;;;932982;152;27411;-78
2022/10/12 01:52:43;;;;;;;2.57;2.33;;;7.20;92.10;;;;;;933773;152;27779;-78
2022/10/12 01:55:22;;;;;;;3.97;2.30;;;7.20;92.30;;;;;;917752;152;27243;-77
2022/10/12 01:58:06;;;;;;;3.33;2.20;;;7.20;92.10;;;;;;933720;152;27349;-77
2022/10/12 02:00:32;;;;;;;5.33;2.70;;;7.20;92.10;;;;;;935675;152;27460;-78
2022/10/12 02:02:59;;;;;;;3.37;2.50;;;7.20;91.90;;;;;;935187;151;27350;-77
2022/10/12 02:05:38;;;;;;;3.93;2.00;;;7.10;91.90;;;;;;935823;149;27319;-78
2022/10/12 02:08:19;;;;;;;2.17;1.97;;;7.10;91.80;;;;;;933952;152;27401;-77
2022/10/12 02:10:55;;;;;;;2.17;2.07;;;7.10;91.70;;;;;;934685;152;27464;-77
2022/10/12 02:13:22;;;;;;;4.33;2.40;;;7.00;91.60;;;;;;933769;152;27926;-78
2022/10/12 02:15:48;;;;;;;3.70;2.60;;;7.00;91.70;;;;;;933854;152;27318;-78
2022/10/12 02:18:15;;;;;;;3.33;2.57;;;7.00;91.80;;;;;;933954;152;27365;-78
2022/10/12 02:20:41;;;;;;;5.07;2.57;;;6.90;92.00;;;;;;908636;154;27521;-78
2022/10/12 02:23:08;;;;;;;5.47;2.57;;;6.90;92.20;;;;;;934560;152;27379;-77
2022/10/12 02:25:34;;;;;;;5.80;2.83;;;6.90;92.70;;;;;;934820;152;27430;-79
2022/10/12 02:28:07;;;;;;;5.17;2.93;;;6.90;92.50;;;;;;934423;152;27314;-79
2022/10/12 02:30:33;;;;;;;3.10;2.27;;;6.80;92.50;;;;;;932775;152;27310;-79
2022/10/12 02:33:03;;;;;;;5.20;3.17;;;6.80;92.50;;;;;;933690;152;27347;-79
2022/10/12 02:35:32;;;;;;;6.37;3.20;;;6.80;92.50;;;;;;933107;152;27370;-79
2022/10/12 02:38:01;;;;;;;5.80;3.27;;;6.80;92.70;;;;;;934676;152;28820;-79
2022/10/12 02:40:37;;;;;;;5.97;2.70;;;6.80;92.80;;;;;;914726;153;27392;-79
2022/10/12 02:43:06;;;;;;;5.57;2.70;;;6.80;93.00;;;;;;933903;152;27470;-79
2022/10/12 02:45:33;;;;;;;4.80;2.60;;;6.80;93.10;;;;;;922136;152;27499;-79
2022/10/12 02:47:59;;;;;;;2.60;2.40;;;6.80;93.10;;;;;;933864;152;27346;-79
2022/10/12 02:50:26;;;;;;;4.60;2.80;;;6.80;93.20;;;;;;933962;152;27844;-78
2022/10/12 02:52:52;;;;;;;3.97;2.50;;;6.80;93.20;;;;;;935539;152;27338;-78
2022/10/12 02:57:59;;;;;;;6.23;3.07;;;6.80;93.20;;;;;;973706;145;35251;-78
2022/10/12 03:00:25;;;;;;;3.70;2.60;;;6.80;93.50;;;;;;953630;149;27437;-78
2022/10/12 03:02:52;;;;;;;3.60;2.50;;;6.70;93.20;;;;;;954212;149;27435;-78
2022/10/12 03:05:19;;;;;;;5.37;2.27;;;6.70;93.10;;;;;;954649;146;28169;-78
2022/10/12 03:07:45;;;;;;;2.43;2.10;;;6.70;92.90;;;;;;952308;149;27335;-77
2022/10/12 03:10:12;;;;;;;3.00;2.47;;;6.70;92.80;;;;;;954761;149;27263;-78
2022/10/12 03:12:38;;;;;;;3.77;2.77;;;6.70;93.10;;;;;;951991;149;27296;-78
2022/10/12 03:15:05;;;;;;;4.33;2.10;;;6.60;92.70;;;;;;953117;148;27440;-78
2022/10/12 03:17:31;;;;;;;3.67;2.43;;;6.60;93.10;;;;;;952838;149;27326;-78
2022/10/12 03:19:58;;;;;;;3.07;2.43;;;6.60;92.70;;;;;;952611;149;27318;-78
2022/10/12 03:22:25;;;;;;;3.57;2.40;;;6.50;92.80;;;;;;951435;149;27290;-78
2022/10/12 03:24:51;;;;;;;4.20;2.27;;;6.50;92.80;;;;;;952788;149;27388;-78
2022/10/12 03:27:18;;;;;;;2.30;2.00;;;6.50;92.90;;;;;;954282;147;27375;-78
2022/10/12 03:29:44;;;;;;;2.93;2.33;;;6.50;92.90;;;;;;952490;149;27342;-78
2022/10/12 03:32:11;;;;;;;3.40;2.53;;;6.40;93.00;;;;;;952849;149;27329;-78
2022/10/12 03:34:38;;;;;;;3.30;2.80;;;6.40;93.10;;;;;;951643;149;27333;-78
2022/10/12 03:37:04;;;;;;;2.87;2.30;;;6.40;93.30;;;;;;953722;148;27375;-78
2022/10/12 03:39:31;;;;;;;2.60;2.40;;;6.40;93.40;;;;;;950730;149;27368;-78
2022/10/12 03:41:57;;;;;;;2.30;2.10;;;6.30;93.50;;;;;;953012;149;27316;-78
2022/10/12 03:44:24;;;;;;;4.50;2.70;;;6.30;93.60;;;;;;950832;147;27425;-78
2022/10/12 03:46:50;;;;;;;4.10;2.63;;;6.30;93.60;;;;;;946445;151;27288;-78
2022/10/12 03:49:17;;;;;;;2.60;2.40;;;6.30;93.70;;;;;;946970;150;27407;-78
2022/10/12 03:51:44;;;;;;;7.07;3.07;;;6.30;93.70;;;;;;947298;150;27389;-78
2022/10/12 03:54:10;;;;;;;2.43;2.20;;;6.30;94.00;;;;;;946584;150;27357;-78
2022/10/12 03:56:37;;;;;;;3.03;2.50;;;6.30;94.20;;;;;;948151;150;27486;-78
2022/10/12 03:59:03;;;;;;;3.77;2.03;;;6.30;94.40;;;;;;953519;148;27841;-78
2022/10/12 04:01:30;;;;;;;2.63;2.27;;;6.30;94.40;;;;;;952310;148;27338;-78
2022/10/12 04:03:57;;;;;;;3.83;2.53;;;6.30;94.60;;;;;;952686;148;27358;-78
2022/10/12 04:06:23;;;;;;;4.07;2.47;;;6.30;94.70;;;;;;953545;148;27318;-78
2022/10/12 04:08:50;;;;;;;2.27;2.07;;;6.30;94.70;;;;;;953469;148;27334;-78
2022/10/12 04:11:16;;;;;;;4.23;2.40;;;6.30;94.80;;;;;;953383;148;27289;-78
2022/10/12 04:13:43;;;;;;;2.83;2.23;;;6.40;94.90;;;;;;952548;150;27346;-78
2022/10/12 04:16:10;;;;;;;5.27;2.77;;;6.40;95.00;;;;;;953056;148;27294;-78
2022/10/12 04:18:36;;;;;;;4.33;2.37;;;6.40;95.00;;;;;;962972;146;27326;-78
2022/10/12 04:21:03;;;;;;;5.20;2.90;;;6.40;95.10;;;;;;956377;149;27333;-78
2022/10/12 04:23:29;;;;;;;2.70;2.40;;;6.40;95.10;;;;;;962863;146;27805;-78
2022/10/12 04:25:56;;;;;;;2.77;2.27;;;6.40;95.10;;;;;;962466;146;27340;-78
2022/10/12 04:28:22;;;;;;;2.80;2.50;;;6.40;95.00;;;;;;951627;150;27313;-78
2022/10/12 04:30:49;;;;;;;4.10;2.97;;;6.40;94.90;;;;;;953162;149;27404;-78
2022/10/12 04:33:16;;;;;;;7.73;3.27;;;6.40;95.00;;;;;;953263;148;27400;-78
2022/10/12 04:35:42;;;;;;;3.03;2.33;;;6.40;95.00;;;;;;953212;148;27448;-78
2022/10/12 04:38:09;;;;;;;4.77;2.77;;;6.40;95.00;;;;;;952511;150;27415;-77
2022/10/12 04:40:35;;;;;;;2.57;2.37;;;6.40;95.10;;;;;;953091;150;27391;-78
2022/10/12 04:43:02;;;;;;;3.33;2.90;;;6.40;95.10;;;;;;952828;148;27352;-78
2022/10/12 04:45:29;;;;;;;3.30;2.90;;;6.40;95.20;;;;;;952462;148;27358;-78
2022/10/12 04:47:55;;;;;;;4.50;3.00;;;6.40;95.60;;;;;;952783;148;27344;-77
2022/10/12 04:50:22;;;;;;;3.07;2.60;;;6.40;95.40;;;;;;952503;148;27397;-78
2022/10/12 04:52:48;;;;;;;2.93;2.70;;;6.50;95.50;;;;;;952743;148;27309;-78
2022/10/12 04:55:15;;;;;;;3.37;3.03;;;6.50;95.70;;;;;;953531;148;27294;-78
2022/10/12 04:57:42;;;;;;;4.97;3.13;;;6.50;95.70;;;;;;953642;148;27354;-77
2022/10/12 05:00:08;;;;;;;2.97;2.67;;;6.50;95.80;;;;;;952951;149;27337;-77
2022/10/12 05:02:35;;;;;;;3.07;2.77;;;6.60;95.90;;;;;;952846;149;27433;-77
2022/10/12 05:05:01;;;;;;;4.90;3.30;;;6.60;95.90;;;;;;953235;150;27334;-78
2022/10/12 05:07:28;;;;;;;4.93;2.93;;;6.60;96.00;;;;;;952554;148;27293;-78
2022/10/12 05:09:55;;;;;;;6.70;3.57;;;6.70;96.00;;;;;;952557;148;27800;-77
2022/10/12 05:12:21;;;;;;;4.33;3.33;;;6.70;96.00;;;;;;953270;148;27368;-78
2022/10/12 05:14:48;;;;;;;4.60;3.13;;;6.70;96.00;;;;;;952150;148;27429;-78
2022/10/12 05:17:14;;;;;;;5.37;3.23;;;6.80;96.00;;;;;;953219;150;27435;-78
2022/10/12 05:19:41;;;;;;;3.87;2.80;;;6.80;95.90;;;;;;952620;150;27381;-78
2022/10/12 05:22:07;;;;;;;3.07;2.77;;;6.80;95.80;;;;;;952481;148;27293;-78
2022/10/12 05:24:34;;;;;;;4.90;2.73;;;6.90;95.70;;;;;;953196;148;27307;-78
2022/10/12 05:27:01;;;;;;;6.33;2.87;;;6.90;95.60;;;;;;953783;148;27439;-78
2022/10/12 05:29:27;;;;;;;3.00;2.57;;;6.90;95.60;;;;;;952717;150;27315;-77
2022/10/12 05:31:54;;;;;;;5.57;3.03;;;6.90;95.70;;;;;;952368;150;27352;-78
2022/10/12 05:34:20;;;;;;;3.70;2.83;;;6.90;95.60;;;;;;952894;148;27386;-78
2022/10/12 05:36:47;;;;;;;4.87;2.97;;;6.90;95.70;;;;;;952879;148;27784;-77
2022/10/12 05:39:14;;;;;;;4.27;2.87;;;7.00;95.70;;;;;;952351;148;27342;-78
2022/10/12 05:41:40;;;;;;;4.53;2.60;;;7.00;95.60;;;;;;952844;150;27462;-78
2022/10/12 05:44:07;;;;;;;5.17;3.07;;;7.00;95.70;;;;;;953190;148;27346;-78
2022/10/12 05:46:33;;;;;;;2.97;2.73;;;7.10;95.90;;;;;;953085;150;27384;-78
2022/10/12 05:49:00;;;;;;;3.03;2.73;;;7.10;96.00;;;;;;953448;150;27298;-78
2022/10/12 05:51:26;;;;;;;5.60;2.70;;;7.10;96.20;;;;;;952027;148;27399;-78
2022/10/12 05:53:53;;;;;;;3.33;2.43;;;7.20;96.40;;;;;;952766;148;27442;-78
2022/10/12 05:56:20;;;;;;;4.40;2.43;;;7.20;96.70;;;;;;952129;150;27283;-78
2022/10/12 05:58:46;;;;;;;5.87;3.07;;;7.30;96.80;;;;;;947518;150;27348;-78
2022/10/12 06:01:13;;;;;;;2.50;2.30;;;7.30;96.90;;;;;;940539;151;27368;-77
2022/10/12 06:03:39;;;;;;;5.67;2.83;;;7.40;97.00;;;;;;940611;151;27378;-77
2022/10/12 06:06:06;;;;;;;10.03;3.97;;;7.50;97.30;;;;;;940261;151;27356;-78
2022/10/12 06:08:33;;;;;;;3.10;2.73;;;7.50;97.40;;;;;;939445;151;27351;-78
2022/10/12 06:10:59;;;;;;;5.13;2.83;;;7.60;97.40;;;;;;939810;150;27332;-78
2022/10/12 06:13:26;;;;;;;3.67;2.37;;;7.70;97.30;;;;;;940747;151;27292;-77
2022/10/12 06:15:52;;;;;;;5.33;3.30;;;7.80;97.20;;;;;;939764;151;27250;-78
2022/10/12 06:18:19;;;;;;;3.03;2.47;;;7.90;97.00;;;;;;939292;150;27373;-78
2022/10/12 06:20:46;;;;;;;3.73;2.47;;;7.90;97.00;;;;;;940248;152;27343;-78
2022/10/12 06:23:12;;;;;;;3.30;2.73;;;8.00;96.90;;;;;;938891;150;27332;-78
2022/10/12 06:25:39;;;;;;;4.07;2.80;;;8.10;96.90;;;;;;937659;151;27308;-79
2022/10/12 06:28:05;;;;;;;5.43;2.70;;;8.20;96.70;;;;;;939246;152;27408;-79
2022/10/12 06:30:32;;;;;;;3.10;2.80;;;8.20;96.70;;;;;;940082;151;27476;-78
2022/10/12 06:32:58;;;;;;;4.37;3.33;;;8.30;97.10;;;;;;940446;151;27424;-79
2022/10/12 06:35:25;;;;;;;8.67;4.47;;;8.50;98.30;;;;;;939344;151;27351;-79
2022/10/12 06:37:52;;;;;;;6.50;5.83;;;8.70;99.70;;;;;;940136;151;27241;-79
2022/10/12 06:40:18;;;;;;;4.87;4.37;;;9.00;99.90;;;;;;940246;151;27439;-78
2022/10/12 06:42:45;;;;;;;6.20;5.00;;;9.40;99.90;;;;;;939801;150;27320;-78
2022/10/12 06:45:11;;;;;;;7.43;5.17;;;9.90;99.90;;;;;;938953;152;27379;-79
2022/10/12 06:47:38;;;;;;;8.10;6.60;;;10.40;99.90;;;;;;940641;152;28441;-79
2022/10/12 06:50:05;;;;;;;6.00;5.43;;;11.10;99.90;;;;;;940521;151;27297;-79
2022/10/12 06:52:31;;;;;;;7.53;6.77;;;11.80;99.90;;;;;;940896;151;27315;-79
2022/10/12 06:54:58;;;;;;;8.27;6.00;;;12.50;99.90;;;;;;939477;151;27277;-79
2022/10/12 06:57:24;;;;;;;8.10;6.17;;;13.20;99.90;;;;;;940751;152;27358;-79
2022/10/12 06:59:51;;;;;;;8.63;5.30;;;13.90;99.80;;;;;;949136;150;27393;-79
2022/10/12 07:02:17;;;;;;;6.78;4.95;;;14.60;98.00;;;;;;952085;150;27279;-80
2022/10/12 07:04:44;;;;;;;7.53;5.33;;;15.30;96.90;;;;;;952770;150;27399;-79
2022/10/12 07:07:11;;;;;;;7.78;5.83;;;16.00;95.20;;;;;;952859;148;27294;-79
2022/10/12 07:09:37;;;;;;;5.33;4.83;;;16.70;93.80;;;;;;953251;150;27403;-80
2022/10/12 07:12:04;;;;;;;8.38;4.58;;;17.30;91.70;;;;;;953127;148;27354;-80
2022/10/12 07:14:30;;;;;;;5.35;4.40;;;17.90;89.80;;;;;;952786;150;27345;-80
2022/10/12 07:16:57;;;;;;;4.92;4.15;;;18.50;86.50;;;;;;953108;148;27424;-80
2022/10/12 07:19:24;;;;;;;4.72;4.33;;;19.00;83.50;;;;;;953221;148;27396;-80
2022/10/12 07:21:50;;;;;;;4.83;4.33;;;19.40;81.00;;;;;;953601;148;27790;-80
2022/10/12 07:24:17;;;;;;;4.17;3.77;;;19.80;77.70;;;;;;952600;150;27684;-80
2022/10/12 07:26:43;;;;;;;4.45;4.05;;;20.20;76.70;;;;;;953911;150;27406;-80
2022/10/12 07:29:10;;;;;;;5.08;4.00;;;20.60;75.50;;;;;;952860;148;27346;-80
2022/10/12 07:31:37;;;;;;;4.65;3.40;;;21.00;74.60;;;;;;962056;146;27383;-80
2022/10/12 07:34:03;;;;;;;3.92;3.50;;;21.40;73.40;;;;;;948910;150;27410;-80
2022/10/12 07:36:30;;;;;;;4.62;3.25;;;21.90;72.50;;;;;;951706;149;27347;-80
2022/10/12 07:38:56;;;;;;;5.25;3.22;;;22.30;71.00;;;;;;953423;150;27335;-80
2022/10/12 07:41:23;;;;;;;8.38;3.42;;;22.70;69.50;;;;;;951830;150;27243;-80
2022/10/12 07:43:49;;;;;;;7.37;3.05;;;23.10;68.10;;;;;;953567;148;27359;-81
2022/10/12 07:46:16;;;;;;;3.37;3.08;;;23.50;66.70;;;;;;952697;149;27331;-81
2022/10/12 07:48:43;;;;;;;2.92;2.62;;;23.80;65.30;;;;;;953241;148;27388;-81
2022/10/12 07:51:09;;;;;;;3.20;2.70;;;24.10;64.20;;;;;;952250;148;27443;-79
2022/10/12 07:53:36;;;;;;;3.17;2.87;;;24.40;63.10;;;;;;952253;150;27323;-79
2022/10/12 07:56:02;;;;;;;2.80;2.52;;;24.70;62.30;;;;;;952477;150;27404;-79
2022/10/12 07:58:29;;;;;;;4.37;2.62;;;24.90;61.50;;;;;;951860;149;27353;-79
2022/10/12 08:00:56;;;;;;;2.87;2.62;;;25.10;60.70;;;;;;948215;148;27381;-80
2022/10/12 08:03:22;;;;;;;4.58;3.60;;;25.40;60.20;;;;;;947714;150;27409;-79
2022/10/12 08:05:49;;;;;;;6.55;3.17;;;25.60;59.70;;;;;;947911;151;27335;-80
2022/10/12 08:08:15;;;;;;;3.67;3.10;;;25.90;59.50;;;;;;947349;151;27904;-79
2022/10/12 08:10:42;;;;;;;4.22;3.42;;;26.20;58.90;;;;;;948688;151;27386;-79
2022/10/12 08:13:09;;;;;;;5.08;2.92;;;26.40;58.30;;;;;;948962;150;27346;-80
2022/10/12 08:15:35;;;;;;;3.87;2.87;;;26.70;57.90;;;;;;948612;150;27335;-80
2022/10/12 08:18:02;;;;;;;4.05;3.05;;;27.00;57.00;;;;;;948972;148;27368;-77
2022/10/12 08:20:28;;;;;;;3.95;2.90;;;27.20;56.50;;;;;;947449;151;27297;-77
2022/10/12 08:22:55;;;;;;;3.72;3.30;;;27.40;56.10;;;;;;948184;151;27344;-77
2022/10/12 08:25:21;;;;;;;6.28;3.92;;;27.60;55.80;;;;;;947558;150;28140;-77
2022/10/12 08:27:48;;;;;;;6.08;3.85;;;27.70;55.20;;;;;;948660;150;27385;-77
2022/10/12 08:30:15;;;;;;;3.47;2.85;;;27.90;54.90;;;;;;948760;150;27783;-77
2022/10/12 08:32:41;;;;;;;4.65;3.20;;;28.00;54.50;;;;;;948536;151;27332;-77
2022/10/12 08:35:08;;;;;;;3.67;2.95;;;28.20;54.00;;;;;;948557;150;27398;-77
2022/10/12 08:37:34;;;;;;;4.62;3.02;;;28.30;53.70;;;;;;948716;150;27272;-77
2022/10/12 08:40:01;;;;;;;4.83;3.25;;;28.50;53.30;;;;;;947550;150;27417;-77
2022/10/12 08:42:33;;;;;;;5.72;3.55;;;28.60;52.90;;;;;;948389;150;27428;-77
2022/10/12 08:45:11;;;;;;;4.03;3.10;;;28.70;52.50;;;;;;923396;151;27486;-79
2022/10/12 08:47:41;;;;;;;4.92;3.20;;;28.70;52.30;;;;;;947649;150;27349;-78
2022/10/12 08:50:09;;;;;;;5.33;3.08;;;28.70;51.80;;;;;;947816;151;27336;-78
2022/10/12 08:52:36;;;;;;;3.40;2.98;;;28.50;51.00;;;;;;947412;150;27756;-78
2022/10/12 08:55:25;;;;;;;4.67;3.37;;;28.30;50.30;;;;;;946975;150;27369;-79
2022/10/12 08:57:51;;;;;;;4.05;3.15;;;27.80;49.90;;;;;;948062;151;27801;-79
2022/10/12 09:00:17;;;;;;;3.92;3.52;;;27.40;50.00;;;;;;946054;150;27396;-79
2022/10/12 09:02:56;;;;;;;4.60;3.65;;;26.90;50.00;;;;;;939816;151;27341;-79
2022/10/12 09:05:23;;;;;;;4.03;3.45;;;26.50;50.10;;;;;;920220;151;27348;-79
2022/10/12 09:07:55;;;;;;;6.78;3.87;;;25.90;50.40;;;;;;939461;151;27284;-78
2022/10/12 09:10:40;;;;;;;5.00;2.98;;;25.50;50.60;;;;;;930704;152;27251;-78
2022/10/12 09:13:43;;;;;;;3.22;2.92;;;25.00;50.90;;;;;;940071;151;27271;-79
2022/10/12 09:16:19;;;;;;;4.37;2.55;;;24.50;51.30;;;;;;940156;151;27789;-78
2022/10/12 09:18:45;;;;;;;4.55;2.90;;;23.90;52.00;;;;;;940699;151;27386;-78
2022/10/12 09:21:12;;;;;;;4.17;3.10;;;23.50;52.30;;;;;;940521;151;27414;-78
2022/10/12 09:23:39;;;;;;;3.77;3.10;;;23.20;53.20;;;;;;938433;151;27421;-78
2022/10/12 09:26:17;;;;;;;3.55;2.72;;;22.90;53.20;;;;;;940082;151;27395;-78
2022/10/12 09:28:52;;;;;;;3.22;2.85;;;22.70;53.60;;;;;;938944;151;27292;-78
2022/10/12 09:31:31;;;;;;;5.22;3.10;;;22.50;54.10;;;;;;940097;152;27312;-79
2022/10/12 09:33:57;;;;;;;3.30;2.90;;;22.40;54.60;;;;;;939468;149;27351;-78
2022/10/12 09:36:24;;;;;;;4.50;3.15;;;22.30;54.80;;;;;;940483;150;27322;-79
2022/10/12 09:38:51;;;;;;;3.70;2.83;;;22.20;54.80;;;;;;940600;150;27397;-78
2022/10/12 09:41:23;;;;;;;4.08;2.92;;;22.20;54.70;;;;;;940580;151;27286;-79
2022/10/12 09:43:55;;;;;;;3.58;2.50;;;22.10;54.90;;;;;;939283;152;27400;-79
2022/10/12 09:46:22;;;;;;;5.75;2.95;;;22.00;55.40;;;;;;940377;152;27278;-78
2022/10/12 09:48:57;;;;;;;5.35;3.33;;;22.00;55.70;;;;;;940290;151;27422;-78
2022/10/12 09:51:24;;;;;;;4.58;2.52;;;22.10;55.90;;;;;;939742;151;27331;-78
2022/10/12 09:53:50;;;;;;;3.25;2.40;;;22.20;55.70;;;;;;940700;150;27313;-78
2022/10/12 09:56:27;;;;;;;5.10;3.22;;;22.20;55.60;;;;;;939902;150;27427;-78
2022/10/12 09:58:52;;;;;;;8.48;3.75;;;22.20;55.50;;;;;;940096;152;27400;-78
2022/10/12 10:01:22;;;;;;;3.77;3.47;;;22.30;55.40;;;;;;940297;149;27456;-78
2022/10/12 10:03:50;;;;;;;3.95;3.15;;;22.30;55.30;;;;;;940091;151;27435;-78
2022/10/12 10:06:15;;;;;;;3.95;3.17;;;22.30;55.10;;;;;;940111;149;27336;-78
2022/10/12 10:08:41;;;;;;;2.75;2.55;;;22.30;55.00;;;;;;939528;151;27320;-78
2022/10/12 10:11:11;;;;;;;4.12;2.92;;;22.30;54.90;;;;;;940411;152;27309;-79
2022/10/12 10:13:38;;;;;;;4.97;3.30;;;22.30;54.80;;;;;;939781;152;27319;-78
2022/10/12 10:16:10;;;;;;;4.40;2.67;;;22.20;54.90;;;;;;940633;151;27393;-78
2022/10/12 10:18:49;;;;;;;6.20;3.20;;;22.10;54.80;;;;;;940385;151;27414;-78
2022/10/12 10:21:33;;;;;;;2.98;2.58;;;22.00;54.90;;;;;;935660;150;27863;-79
2022/10/12 10:24:00;;;;;;;4.45;3.40;;;21.90;55.00;;;;;;940463;152;27445;-78
2022/10/12 10:26:26;;;;;;;4.40;3.33;;;21.90;55.20;;;;;;940264;151;27305;-78
2022/10/12 10:28:56;;;;;;;5.83;2.98;;;21.80;55.30;;;;;;940805;151;27332;-79
2022/10/12 10:31:26;;;;;;;6.17;3.15;;;21.70;55.30;;;;;;936351;151;27628;-79
2022/10/12 10:34:07;;;;;;;3.83;2.98;;;21.70;55.50;;;;;;939089;152;27362;-79
2022/10/12 10:36:34;;;;;;;5.85;3.37;;;21.60;55.50;;;;;;937364;151;27327;-78
2022/10/12 10:39:07;;;;;;;4.70;3.00;;;21.60;55.60;;;;;;939442;151;27687;-79
2022/10/12 10:41:35;;;;;;;4.62;3.20;;;21.50;55.80;;;;;;940043;151;27494;-78
2022/10/12 10:44:02;;;;;;;7.17;3.35;;;21.40;55.90;;;;;;939974;149;27398;-78
2022/10/12 10:46:29;;;;;;;3.85;2.67;;;21.40;56.20;;;;;;939699;151;27342;-78
2022/10/12 10:49:05;;;;;;;7.90;3.55;;;21.40;56.50;;;;;;939302;152;27259;-78
2022/10/12 10:51:40;;;;;;;5.37;2.87;;;21.30;56.50;;;;;;939256;151;27462;-78
2022/10/12 10:54:15;;;;;;;3.00;2.75;;;21.30;56.50;;;;;;937320;151;27308;-78
2022/10/12 10:56:42;;;;;;;4.70;3.17;;;21.30;56.50;;;;;;939222;151;27368;-78
2022/10/12 10:59:14;;;;;;;5.30;3.25;;;21.30;56.50;;;;;;941055;151;27376;-78
2022/10/12 11:01:49;;;;;;;4.30;2.92;;;21.20;56.50;;;;;;940549;151;27368;-78
2022/10/12 11:04:16;;;;;;;4.78;3.35;;;21.10;56.60;;;;;;940050;151;27449;-78
2022/10/12 11:06:43;;;;;;;4.42;3.10;;;21.00;56.70;;;;;;940663;152;27289;-79
2022/10/12 11:09:12;;;;;;;5.45;3.33;;;21.00;57.40;;;;;;940526;151;27448;-79
2022/10/12 11:11:39;;;;;;;8.15;2.92;;;20.90;57.10;;;;;;940259;149;27333;-79
2022/10/12 11:14:11;;;;;;;6.05;3.25;;;20.80;57.20;;;;;;940218;150;27271;-79
2022/10/12 11:16:50;;;;;;;5.30;3.33;;;20.80;57.50;;;;;;939157;152;27381;-79
2022/10/12 11:19:35;;;;;;;4.08;3.10;;;20.80;57.80;;;;;;939244;152;27305;-79
2022/10/12 11:22:16;;;;;;;4.78;3.65;;;20.80;58.00;;;;;;940617;151;27358;-79
2022/10/12 11:24:42;;;;;;;6.50;3.60;;;20.80;58.70;;;;;;939463;152;27285;-79
2022/10/12 11:27:12;;;;;;;4.22;3.60;;;20.90;58.30;;;;;;939993;151;27911;-79
2022/10/12 11:29:39;;;;;;;4.30;3.72;;;21.00;58.30;;;;;;939174;151;27324;-78
2022/10/12 11:32:23;;;;;;;6.70;3.47;;;21.00;58.30;;;;;;940834;151;27417;-78
2022/10/12 11:34:53;;;;;;;4.47;3.35;;;21.10;58.40;;;;;;939165;151;27331;-78
2022/10/12 11:37:19;;;;;;;4.00;3.45;;;21.20;58.50;;;;;;938055;151;27324;-78
2022/10/12 11:39:46;;;;;;;5.15;3.65;;;21.30;58.60;;;;;;939208;151;27329;-78
2022/10/12 11:42:13;;;;;;;6.65;3.12;;;21.30;58.60;;;;;;939282;151;27299;-78
2022/10/12 11:44:42;;;;;;;3.77;3.47;;;21.40;58.60;;;;;;940022;149;27367;-78
2022/10/12 11:47:42;;;;;;;4.50;3.42;;;21.50;58.60;;;;;;940822;152;27865;-78
2022/10/12 11:50:24;;;;;;;4.72;3.80;;;21.60;58.60;;;;;;938249;151;27300;-79
2022/10/12 11:52:51;;;;;;;6.80;3.58;;;21.60;58.30;;;;;;939869;150;27433;-78
2022/10/12 11:55:42;;;;;;;4.08;3.65;;;21.60;58.30;;;;;;940576;152;27351;-79
2022/10/12 11:58:11;;;;;;;5.58;3.83;;;21.60;58.30;;;;;;940542;152;27355;-78
2022/10/12 12:00:43;;;;;;;5.53;3.67;;;21.60;58.50;;;;;;938081;152;27956;-78
2022/10/12 12:03:10;;;;;;;4.12;3.77;;;21.60;58.60;;;;;;938408;151;27834;-78
2022/10/12 12:05:37;;;;;;;6.33;3.70;;;21.60;58.80;;;;;;934649;150;27345;-78
2022/10/12 12:08:03;;;;;;;6.83;4.08;;;21.60;58.90;;;;;;940071;146;28007;-79
2022/10/12 12:10:33;;;;;;;7.30;3.85;;;21.70;59.30;;;;;;940583;150;28703;-78
2022/10/12 12:13:16;;;;;;;4.65;4.22;;;21.70;59.30;;;;;;940232;151;27293;-78
2022/10/12 12:15:40;;;;;;;5.40;3.50;;;21.80;59.30;;;;;;936207;151;27361;-79
2022/10/12 12:18:19;;;;;;;5.83;3.72;;;21.90;59.30;;;;;;940199;152;27280;-78
2022/10/12 12:20:48;;;;;;;5.78;3.75;;;22.10;59.30;;;;;;940348;152;27326;-78
2022/10/12 12:23:24;;;;;;;4.70;4.20;;;22.20;59.20;;;;;;939446;152;27410;-79
2022/10/12 12:26:11;;;;;;;3.37;3.08;;;22.20;59.60;;;;;;940167;152;27348;-79
2022/10/12 12:28:38;;;;;;;5.05;3.55;;;22.40;59.00;;;;;;939906;152;27320;-79
2022/10/12 12:31:13;;;;;;;5.30;3.65;;;22.50;59.10;;;;;;939614;151;27313;-78
2022/10/12 12:33:41;;;;;;;5.45;4.03;;;22.60;59.10;;;;;;939503;149;27313;-78
2022/10/12 12:36:06;;;;;;;4.97;3.72;;;22.70;59.00;;;;;;940499;151;27640;-78
2022/10/12 12:38:33;;;;;;;4.10;3.72;;;22.80;58.80;;;;;;940359;151;27451;-78
2022/10/12 12:41:11;;;;;;;6.55;4.42;;;22.90;58.90;;;;;;940995;151;27343;-78
2022/10/12 12:43:44;;;;;;;5.15;4.40;;;22.90;58.60;;;;;;940112;152;27250;-78
2022/10/12 12:46:10;;;;;;;5.17;4.70;;;23.00;58.60;;;;;;939092;151;27706;-78
2022/10/12 12:48:46;;;;;;;6.20;4.58;;;23.00;58.40;;;;;;939989;151;27394;-79
2022/10/12 12:51:22;;;;;;;4.80;4.25;;;23.00;58.40;;;;;;939428;151;27460;-79
2022/10/12 12:54:00;;;;;;;5.45;4.35;;;23.00;58.50;;;;;;939842;152;27370;-79
2022/10/12 12:56:35;;;;;;;8.03;4.65;;;23.00;59.20;;;;;;940067;151;27390;-79
2022/10/12 12:59:04;;;;;;;5.17;4.50;;;23.00;58.80;;;;;;939726;151;27398;-78
2022/10/12 13:01:34;;;;;;;4.67;4.28;;;23.00;59.00;;;;;;939370;151;27427;-78
2022/10/12 13:04:06;;;;;;;5.60;4.20;;;23.10;58.90;;;;;;947887;150;27465;-78
2022/10/12 13:06:32;;;;;;;4.95;4.55;;;23.10;58.80;;;;;;952475;148;27661;-78